sensor_id;sensor_type;location;lat;lon;timestamp;temperature;humidity
24902;DHT22;31328;51.402;0.016;2023-05-15T00:01:47;15.90;92.30
24902;DHT22;31328;51.402;0.016;2023-05-15T00:04:13;15.90;92.50
24902;DHT22;31328;51.402;0.016;2023-05-15T00:06:40;15.90;92.50
24902;DHT22;31328;51.402;0.016;2023-05-15T00:09:06;15.90;92.40
24902;DHT22;31328;51.402;0.016;2023-05-15T00:11:33;15.80;92.40
24902;DHT22;31328;51.402;0.016;2023-05-15T00:14:00;15.80;92.50
24902;DHT22;31328;51.402;0.016;2023-05-15T00:16:27;15.80;92.60
24902;DHT22;31328;51.402;0.016;2023-05-15T00:18:53;15.80;92.70
24902;DHT22;31328;51.402;0.016;2023-05-15T00:21:19;15.80;92.80
24902;DHT22;31328;51.402;0.016;2023-05-15T00:23:46;15.80;92.80
24902;DHT22;31328;51.402;0.016;2023-05-15T00:26:12;15.80;92.90
24902;DHT22;31328;51.402;0.016;2023-05-15T00:28:40;15.70;93.00
24902;DHT22;31328;51.402;0.016;2023-05-15T00:31:07;15.70;93.10
24902;DHT22;31328;51.402;0.016;2023-05-15T00:33:33;15.70;93.20
24902;DHT22;31328;51.402;0.016;2023-05-15T00:36:00;15.70;93.30
24902;DHT22;31328;51.402;0.016;2023-05-15T00:38:26;15.70;93.30
24902;DHT22;31328;51.402;0.016;2023-05-15T00:40:54;15.60;93.40
24902;DHT22;31328;51.402;0.016;2023-05-15T00:43:21;15.60;93.50
24902;DHT22;31328;51.402;0.016;2023-05-15T00:45:49;15.60;93.70
24902;DHT22;31328;51.402;0.016;2023-05-15T00:48:16;15.60;93.90
24902;DHT22;31328;51.402;0.016;2023-05-15T00:50:44;15.50;94.30
24902;DHT22;31328;51.402;0.016;2023-05-15T00:53:11;15.50;94.00
24902;DHT22;31328;51.402;0.016;2023-05-15T00:55:38;15.50;94.00
24902;DHT22;31328;51.402;0.016;2023-05-15T00:58:06;15.50;94.10
24902;DHT22;31328;51.402;0.016;2023-05-15T01:00:33;15.50;94.10
24902;DHT22;31328;51.402;0.016;2023-05-15T01:02:59;15.60;94.30
24902;DHT22;31328;51.402;0.016;2023-05-15T01:05:27;15.50;94.60
24902;DHT22;31328;51.402;0.016;2023-05-15T01:08:11;15.60;94.40
24902;DHT22;31328;51.402;0.016;2023-05-15T01:10:42;15.60;94.50
24902;DHT22;31328;51.402;0.016;2023-05-15T01:13:10;15.60;94.50
24902;DHT22;31328;51.402;0.016;2023-05-15T01:15:40;15.60;94.70
24902;DHT22;31328;51.402;0.016;2023-05-15T01:18:06;15.60;94.90
24902;DHT22;31328;51.402;0.016;2023-05-15T01:26:33;15.60;95.30
24902;DHT22;31328;51.402;0.016;2023-05-15T01:29:11;15.50;95.20
24902;DHT22;31328;51.402;0.016;2023-05-15T01:31:41;15.50;95.30
24902;DHT22;31328;51.402;0.016;2023-05-15T01:34:10;15.50;95.40
24902;DHT22;31328;51.402;0.016;2023-05-15T01:36:43;15.40;95.40
24902;DHT22;31328;51.402;0.016;2023-05-15T01:39:11;15.40;95.50
24902;DHT22;31328;51.402;0.016;2023-05-15T01:41:48;15.40;95.60
24902;DHT22;31328;51.402;0.016;2023-05-15T01:44:30;15.40;95.80
24902;DHT22;31328;51.402;0.016;2023-05-15T01:47:11;15.40;96.00
24902;DHT22;31328;51.402;0.016;2023-05-15T01:49:41;15.30;95.90
24902;DHT22;31328;51.402;0.016;2023-05-15T01:52:19;15.30;96.00
24902;DHT22;31328;51.402;0.016;2023-05-15T01:54:50;15.30;96.10
24902;DHT22;31328;51.402;0.016;2023-05-15T01:57:19;15.30;96.20
24902;DHT22;31328;51.402;0.016;2023-05-15T01:59:47;15.20;96.20
24902;DHT22;31328;51.402;0.016;2023-05-15T02:02:15;15.20;96.30
24902;DHT22;31328;51.402;0.016;2023-05-15T02:04:43;15.20;96.40
24902;DHT22;31328;51.402;0.016;2023-05-15T02:07:12;15.20;96.50
24902;DHT22;31328;51.402;0.016;2023-05-15T02:09:40;15.20;96.50
24902;DHT22;31328;51.402;0.016;2023-05-15T02:12:08;15.20;96.60
24902;DHT22;31328;51.402;0.016;2023-05-15T02:14:36;15.20;96.70
24902;DHT22;31328;51.402;0.016;2023-05-15T02:17:04;15.10;96.70
24902;DHT22;31328;51.402;0.016;2023-05-15T02:19:31;15.10;96.80
24902;DHT22;31328;51.402;0.016;2023-05-15T02:21:59;15.00;96.90
24902;DHT22;31328;51.402;0.016;2023-05-15T02:24:25;15.00;97.00
24902;DHT22;31328;51.402;0.016;2023-05-15T02:37:14;14.80;97.70
24902;DHT22;31328;51.402;0.016;2023-05-15T02:39:44;14.80;97.70
24902;DHT22;31328;51.402;0.016;2023-05-15T02:42:13;14.80;97.90
24902;DHT22;31328;51.402;0.016;2023-05-15T02:44:41;14.70;98.00
24902;DHT22;31328;51.402;0.016;2023-05-15T02:47:08;14.70;98.20
24902;DHT22;31328;51.402;0.016;2023-05-15T02:49:35;14.70;98.20
24902;DHT22;31328;51.402;0.016;2023-05-15T02:52:02;14.70;98.30
24902;DHT22;31328;51.402;0.016;2023-05-15T02:54:29;14.70;98.30
24902;DHT22;31328;51.402;0.016;2023-05-15T02:56:55;14.70;98.40
24902;DHT22;31328;51.402;0.016;2023-05-15T02:59:22;14.60;98.40
24902;DHT22;31328;51.402;0.016;2023-05-15T03:01:48;14.70;98.50
24902;DHT22;31328;51.402;0.016;2023-05-15T03:04:15;14.60;98.50
24902;DHT22;31328;51.402;0.016;2023-05-15T03:06:41;14.60;98.50
24902;DHT22;31328;51.402;0.016;2023-05-15T03:09:07;14.60;98.70
24902;DHT22;31328;51.402;0.016;2023-05-15T03:11:34;14.60;98.70
24902;DHT22;31328;51.402;0.016;2023-05-15T03:14:00;14.60;98.80
24902;DHT22;31328;51.402;0.016;2023-05-15T03:16:27;14.60;98.80
24902;DHT22;31328;51.402;0.016;2023-05-15T03:18:53;14.50;98.90
24902;DHT22;31328;51.402;0.016;2023-05-15T03:21:20;14.50;98.90
24902;DHT22;31328;51.402;0.016;2023-05-15T03:23:46;14.50;99.00
24902;DHT22;31328;51.402;0.016;2023-05-15T03:26:12;14.50;99.20
24902;DHT22;31328;51.402;0.016;2023-05-15T03:28:39;14.50;99.10
24902;DHT22;31328;51.402;0.016;2023-05-15T03:31:05;14.50;99.10
24902;DHT22;31328;51.402;0.016;2023-05-15T03:33:33;14.50;99.10
24902;DHT22;31328;51.402;0.016;2023-05-15T03:36:00;14.50;99.20
24902;DHT22;31328;51.402;0.016;2023-05-15T03:38:26;14.50;99.20
24902;DHT22;31328;51.402;0.016;2023-05-15T03:40:52;14.40;99.20
24902;DHT22;31328;51.402;0.016;2023-05-15T03:43:19;14.40;99.20
24902;DHT22;31328;51.402;0.016;2023-05-15T03:45:48;14.40;99.30
24902;DHT22;31328;51.402;0.016;2023-05-15T03:48:15;14.30;99.30
24902;DHT22;31328;51.402;0.016;2023-05-15T03:50:43;14.40;99.30
24902;DHT22;31328;51.402;0.016;2023-05-15T03:53:10;14.30;99.30
24902;DHT22;31328;51.402;0.016;2023-05-15T03:55:36;14.30;99.30
24902;DHT22;31328;51.402;0.016;2023-05-15T03:58:02;14.30;99.40
24902;DHT22;31328;51.402;0.016;2023-05-15T04:00:29;14.20;99.40
24902;DHT22;31328;51.402;0.016;2023-05-15T04:02:55;14.20;99.50
24902;DHT22;31328;51.402;0.016;2023-05-15T04:05:22;14.20;99.60
24902;DHT22;31328;51.402;0.016;2023-05-15T04:07:48;14.10;99.70
24902;DHT22;31328;51.402;0.016;2023-05-15T04:10:15;14.10;99.70
24902;DHT22;31328;51.402;0.016;2023-05-15T04:12:41;14.10;99.80
24902;DHT22;31328;51.402;0.016;2023-05-15T04:17:44;14.10;99.90
24902;DHT22;31328;51.402;0.016;2023-05-15T04:20:12;14.00;99.90
24902;DHT22;31328;51.402;0.016;2023-05-15T04:22:39;14.00;99.90
24902;DHT22;31328;51.402;0.016;2023-05-15T04:25:07;14.00;99.90
24902;DHT22;31328;51.402;0.016;2023-05-15T04:27:35;13.90;99.90
24902;DHT22;31328;51.402;0.016;2023-05-15T04:30:03;13.90;99.90
24902;DHT22;31328;51.402;0.016;2023-05-15T04:32:30;13.90;99.90
24902;DHT22;31328;51.402;0.016;2023-05-15T04:34:59;13.90;99.90
24902;DHT22;31328;51.402;0.016;2023-05-15T04:37:27;13.80;99.90
24902;DHT22;31328;51.402;0.016;2023-05-15T04:39:54;13.80;99.90
24902;DHT22;31328;51.402;0.016;2023-05-15T04:42:20;13.80;99.90
24902;DHT22;31328;51.402;0.016;2023-05-15T04:44:46;13.70;99.90
24902;DHT22;31328;51.402;0.016;2023-05-15T04:47:13;13.70;99.90
24902;DHT22;31328;51.402;0.016;2023-05-15T04:49:40;13.70;99.90
24902;DHT22;31328;51.402;0.016;2023-05-15T04:52:07;13.60;99.90
24902;DHT22;31328;51.402;0.016;2023-05-15T04:54:33;13.60;99.90
24902;DHT22;31328;51.402;0.016;2023-05-15T04:56:59;13.60;99.90
24902;DHT22;31328;51.402;0.016;2023-05-15T04:59:26;13.50;99.90
24902;DHT22;31328;51.402;0.016;2023-05-15T05:01:53;13.50;99.90
24902;DHT22;31328;51.402;0.016;2023-05-15T05:04:20;13.50;99.90
24902;DHT22;31328;51.402;0.016;2023-05-15T05:06:46;13.40;99.90
24902;DHT22;31328;51.402;0.016;2023-05-15T05:09:13;13.40;99.90
24902;DHT22;31328;51.402;0.016;2023-05-15T05:11:40;13.30;99.90
24902;DHT22;31328;51.402;0.016;2023-05-15T05:14:09;13.20;99.90
24902;DHT22;31328;51.402;0.016;2023-05-15T05:16:36;13.20;99.90
24902;DHT22;31328;51.402;0.016;2023-05-15T05:19:03;13.10;99.90
24902;DHT22;31328;51.402;0.016;2023-05-15T05:21:30;13.00;99.90
24902;DHT22;31328;51.402;0.016;2023-05-15T05:23:57;12.90;99.90
24902;DHT22;31328;51.402;0.016;2023-05-15T05:26:24;12.90;99.90
24902;DHT22;31328;51.402;0.016;2023-05-15T05:28:51;12.90;99.90
24902;DHT22;31328;51.402;0.016;2023-05-15T05:31:19;12.80;99.90
24902;DHT22;31328;51.402;0.016;2023-05-15T05:33:46;12.80;99.90
24902;DHT22;31328;51.402;0.016;2023-05-15T05:36:14;12.70;99.90
24902;DHT22;31328;51.402;0.016;2023-05-15T05:38:41;12.70;99.90
24902;DHT22;31328;51.402;0.016;2023-05-15T05:41:07;12.60;99.90
24902;DHT22;31328;51.402;0.016;2023-05-15T05:43:34;12.60;99.90
24902;DHT22;31328;51.402;0.016;2023-05-15T05:46:01;12.60;99.90
24902;DHT22;31328;51.402;0.016;2023-05-15T05:48:27;12.60;99.90
24902;DHT22;31328;51.402;0.016;2023-05-15T05:50:54;12.60;99.90
24902;DHT22;31328;51.402;0.016;2023-05-15T05:53:20;12.50;99.90
24902;DHT22;31328;51.402;0.016;2023-05-15T05:55:47;12.50;99.90
24902;DHT22;31328;51.402;0.016;2023-05-15T05:58:13;12.50;99.90
24902;DHT22;31328;51.402;0.016;2023-05-15T06:00:40;12.50;99.90
24902;DHT22;31328;51.402;0.016;2023-05-15T06:03:06;12.50;99.90
24902;DHT22;31328;51.402;0.016;2023-05-15T06:05:33;12.50;99.90
24902;DHT22;31328;51.402;0.016;2023-05-15T06:08:00;12.50;99.90
24902;DHT22;31328;51.402;0.016;2023-05-15T06:10:29;12.40;99.90
24902;DHT22;31328;51.402;0.016;2023-05-15T06:12:56;12.40;99.90
24902;DHT22;31328;51.402;0.016;2023-05-15T06:15:22;12.50;99.90
24902;DHT22;31328;51.402;0.016;2023-05-15T06:17:48;12.40;99.90
24902;DHT22;31328;51.402;0.016;2023-05-15T06:20:15;12.40;99.90
24902;DHT22;31328;51.402;0.016;2023-05-15T06:22:41;12.40;99.90
24902;DHT22;31328;51.402;0.016;2023-05-15T06:25:08;12.40;99.90
24902;DHT22;31328;51.402;0.016;2023-05-15T06:27:39;12.40;99.90
24902;DHT22;31328;51.402;0.016;2023-05-15T06:30:07;12.40;99.90
24902;DHT22;31328;51.402;0.016;2023-05-15T06:32:34;12.40;99.90
24902;DHT22;31328;51.402;0.016;2023-05-15T06:35:01;12.40;99.90
24902;DHT22;31328;51.402;0.016;2023-05-15T06:37:29;12.40;99.90
24902;DHT22;31328;51.402;0.016;2023-05-15T06:39:55;12.40;99.90
24902;DHT22;31328;51.402;0.016;2023-05-15T06:42:22;12.30;99.90
24902;DHT22;31328;51.402;0.016;2023-05-15T06:44:48;12.40;99.90
24902;DHT22;31328;51.402;0.016;2023-05-15T06:47:15;12.40;99.90
24902;DHT22;31328;51.402;0.016;2023-05-15T06:49:41;12.40;99.90
24902;DHT22;31328;51.402;0.016;2023-05-15T06:52:08;12.40;99.90
24902;DHT22;31328;51.402;0.016;2023-05-15T06:54:34;12.40;99.90
24902;DHT22;31328;51.402;0.016;2023-05-15T06:57:00;12.40;99.90
24902;DHT22;31328;51.402;0.016;2023-05-15T06:59:27;12.40;99.90
24902;DHT22;31328;51.402;0.016;2023-05-15T07:01:53;12.40;99.90
24902;DHT22;31328;51.402;0.016;2023-05-15T07:04:20;12.40;99.90
24902;DHT22;31328;51.402;0.016;2023-05-15T07:06:47;12.50;99.90
24902;DHT22;31328;51.402;0.016;2023-05-15T07:09:13;12.50;99.90
24902;DHT22;31328;51.402;0.016;2023-05-15T07:11:40;12.60;99.90
24902;DHT22;31328;51.402;0.016;2023-05-15T07:14:07;12.60;99.90
24902;DHT22;31328;51.402;0.016;2023-05-15T07:16:33;12.60;99.90
24902;DHT22;31328;51.402;0.016;2023-05-15T07:19:00;12.60;99.90
24902;DHT22;31328;51.402;0.016;2023-05-15T07:21:26;12.60;99.90
24902;DHT22;31328;51.402;0.016;2023-05-15T07:23:53;12.60;99.90
24902;DHT22;31328;51.402;0.016;2023-05-15T07:26:19;12.50;99.90
24902;DHT22;31328;51.402;0.016;2023-05-15T07:28:46;12.50;99.90
24902;DHT22;31328;51.402;0.016;2023-05-15T07:31:12;12.50;99.90
24902;DHT22;31328;51.402;0.016;2023-05-15T07:33:39;12.50;99.90
24902;DHT22;31328;51.402;0.016;2023-05-15T07:36:06;12.50;99.90
24902;DHT22;31328;51.402;0.016;2023-05-15T07:38:32;12.60;99.80
24902;DHT22;31328;51.402;0.016;2023-05-15T07:40:58;12.60;99.60
24902;DHT22;31328;51.402;0.016;2023-05-15T07:43:25;12.70;99.70
24902;DHT22;31328;51.402;0.016;2023-05-15T07:45:51;12.70;99.40
24902;DHT22;31328;51.402;0.016;2023-05-15T07:48:19;12.70;99.30
24902;DHT22;31328;51.402;0.016;2023-05-15T07:50:46;12.70;99.40
24902;DHT22;31328;51.402;0.016;2023-05-15T07:53:13;12.70;99.00
24902;DHT22;31328;51.402;0.016;2023-05-15T07:55:42;12.70;98.70
24902;DHT22;31328;51.402;0.016;2023-05-15T07:58:09;12.80;98.90
24902;DHT22;31328;51.402;0.016;2023-05-15T08:00:36;12.80;98.50
24902;DHT22;31328;51.402;0.016;2023-05-15T08:03:03;12.80;98.50
24902;DHT22;31328;51.402;0.016;2023-05-15T08:05:29;12.80;98.00
24902;DHT22;31328;51.402;0.016;2023-05-15T08:07:56;12.80;97.70
24902;DHT22;31328;51.402;0.016;2023-05-15T08:10:23;12.80;97.80
24902;DHT22;31328;51.402;0.016;2023-05-15T08:12:49;12.90;97.60
24902;DHT22;31328;51.402;0.016;2023-05-15T08:15:16;12.90;97.70
24902;DHT22;31328;51.402;0.016;2023-05-15T08:17:43;13.00;97.40
24902;DHT22;31328;51.402;0.016;2023-05-15T08:20:09;13.10;97.50
24902;DHT22;31328;51.402;0.016;2023-05-15T08:22:36;13.20;97.20
24902;DHT22;31328;51.402;0.016;2023-05-15T08:25:03;13.30;96.80
24902;DHT22;31328;51.402;0.016;2023-05-15T08:27:31;13.40;96.40
24902;DHT22;31328;51.402;0.016;2023-05-15T08:29:58;13.50;96.20
24902;DHT22;31328;51.402;0.016;2023-05-15T08:32:24;13.60;96.00
24902;DHT22;31328;51.402;0.016;2023-05-15T08:34:52;13.70;95.90
24902;DHT22;31328;51.402;0.016;2023-05-15T08:37:18;13.80;95.70
24902;DHT22;31328;51.402;0.016;2023-05-15T08:39:44;13.90;95.50
24902;DHT22;31328;51.402;0.016;2023-05-15T08:42:23;13.90;95.70
24902;DHT22;31328;51.402;0.016;2023-05-15T08:44:49;14.00;95.70
24902;DHT22;31328;51.402;0.016;2023-05-15T08:47:18;14.10;95.50
24902;DHT22;31328;51.402;0.016;2023-05-15T08:50:05;14.20;95.20
24902;DHT22;31328;51.402;0.016;2023-05-15T08:52:32;14.30;94.20
24902;DHT22;31328;51.402;0.016;2023-05-15T08:54:59;14.30;94.30
24902;DHT22;31328;51.402;0.016;2023-05-15T08:57:27;14.50;94.30
24902;DHT22;31328;51.402;0.016;2023-05-15T08:59:54;14.60;93.90
24902;DHT22;31328;51.402;0.016;2023-05-15T09:02:21;14.60;93.60
24902;DHT22;31328;51.402;0.016;2023-05-15T09:04:50;14.70;93.20
24902;DHT22;31328;51.402;0.016;2023-05-15T09:07:18;14.80;93.20
24902;DHT22;31328;51.402;0.016;2023-05-15T09:09:45;14.80;92.90
24902;DHT22;31328;51.402;0.016;2023-05-15T09:12:15;14.90;92.60
24902;DHT22;31328;51.402;0.016;2023-05-15T09:14:43;15.00;92.10
24902;DHT22;31328;51.402;0.016;2023-05-15T09:17:10;15.00;92.00
24902;DHT22;31328;51.402;0.016;2023-05-15T09:19:40;15.00;91.70
24902;DHT22;31328;51.402;0.016;2023-05-15T09:22:18;15.00;91.20
24902;DHT22;31328;51.402;0.016;2023-05-15T09:24:50;15.10;90.50
24902;DHT22;31328;51.402;0.016;2023-05-15T09:27:19;15.00;90.30
24902;DHT22;31328;51.402;0.016;2023-05-15T09:29:45;15.00;90.10
24902;DHT22;31328;51.402;0.016;2023-05-15T09:32:13;15.10;89.80
24902;DHT22;31328;51.402;0.016;2023-05-15T09:34:42;15.20;89.40
24902;DHT22;31328;51.402;0.016;2023-05-15T09:37:11;15.30;88.50
24902;DHT22;31328;51.402;0.016;2023-05-15T09:39:42;15.40;88.40
24902;DHT22;31328;51.402;0.016;2023-05-15T09:42:11;15.50;88.20
24902;DHT22;31328;51.402;0.016;2023-05-15T09:44:42;15.50;86.90
24902;DHT22;31328;51.402;0.016;2023-05-15T09:47:09;15.50;86.00
24902;DHT22;31328;51.402;0.016;2023-05-15T09:49:36;15.60;86.30
24902;DHT22;31328;51.402;0.016;2023-05-15T09:52:06;15.60;85.20
24902;DHT22;31328;51.402;0.016;2023-05-15T09:54:34;15.50;84.80
24902;DHT22;31328;51.402;0.016;2023-05-15T09:57:12;15.50;85.30
24902;DHT22;31328;51.402;0.016;2023-05-15T09:59:44;15.50;84.60
24902;DHT22;31328;51.402;0.016;2023-05-15T10:02:13;15.50;84.90
24902;DHT22;31328;51.402;0.016;2023-05-15T10:04:55;15.50;85.20
24902;DHT22;31328;51.402;0.016;2023-05-15T10:07:35;15.50;85.40
24902;DHT22;31328;51.402;0.016;2023-05-15T10:10:03;15.60;84.50
24902;DHT22;31328;51.402;0.016;2023-05-15T10:12:30;15.70;84.50
24902;DHT22;31328;51.402;0.016;2023-05-15T10:14:58;15.70;83.40
24902;DHT22;31328;51.402;0.016;2023-05-15T10:17:27;15.80;82.90
24902;DHT22;31328;51.402;0.016;2023-05-15T10:19:58;15.80;82.10
24902;DHT22;31328;51.402;0.016;2023-05-15T10:22:28;15.80;81.00
24902;DHT22;31328;51.402;0.016;2023-05-15T10:25:02;15.80;80.00
24902;DHT22;31328;51.402;0.016;2023-05-15T10:27:34;15.80;79.10
24902;DHT22;31328;51.402;0.016;2023-05-15T10:30:02;15.80;78.90
24902;DHT22;31328;51.402;0.016;2023-05-15T10:32:29;15.80;79.20
24902;DHT22;31328;51.402;0.016;2023-05-15T10:34:56;15.80;79.40
24902;DHT22;31328;51.402;0.016;2023-05-15T10:37:23;15.80;79.90
24902;DHT22;31328;51.402;0.016;2023-05-15T10:39:52;15.90;78.50
24902;DHT22;31328;51.402;0.016;2023-05-15T10:42:23;15.90;78.30
24902;DHT22;31328;51.402;0.016;2023-05-15T10:44:52;16.00;78.90
24902;DHT22;31328;51.402;0.016;2023-05-15T10:47:26;16.10;78.00
24902;DHT22;31328;51.402;0.016;2023-05-15T10:49:52;16.20;76.90
24902;DHT22;31328;51.402;0.016;2023-05-15T10:52:20;16.20;77.00
24902;DHT22;31328;51.402;0.016;2023-05-15T10:54:46;16.30;76.90
24902;DHT22;31328;51.402;0.016;2023-05-15T10:57:16;16.40;77.20
24902;DHT22;31328;51.402;0.016;2023-05-15T10:59:42;16.60;77.80
24902;DHT22;31328;51.402;0.016;2023-05-15T11:02:23;16.70;76.80
24902;DHT22;31328;51.402;0.016;2023-05-15T11:04:54;16.60;75.00
24902;DHT22;31328;51.402;0.016;2023-05-15T11:07:21;16.60;75.20
24902;DHT22;31328;51.402;0.016;2023-05-15T11:09:50;16.50;76.70
24902;DHT22;31328;51.402;0.016;2023-05-15T11:12:16;16.60;76.30
24902;DHT22;31328;51.402;0.016;2023-05-15T11:17:31;16.70;76.40
24902;DHT22;31328;51.402;0.016;2023-05-15T11:20:00;16.70;76.60
24902;DHT22;31328;51.402;0.016;2023-05-15T11:22:29;16.70;77.00
24902;DHT22;31328;51.402;0.016;2023-05-15T11:25:07;16.60;76.80
24902;DHT22;31328;51.402;0.016;2023-05-15T11:27:43;16.60;75.80
24902;DHT22;31328;51.402;0.016;2023-05-15T11:30:13;16.70;76.60
24902;DHT22;31328;51.402;0.016;2023-05-15T11:35:19;16.80;76.00
24902;DHT22;31328;51.402;0.016;2023-05-15T11:37:49;16.70;76.10
24902;DHT22;31328;51.402;0.016;2023-05-15T11:40:26;16.60;76.00
24902;DHT22;31328;51.402;0.016;2023-05-15T11:45:44;16.50;75.70
24902;DHT22;31328;51.402;0.016;2023-05-15T11:48:15;16.50;75.80
24902;DHT22;31328;51.402;0.016;2023-05-15T11:50:42;16.40;75.70
24902;DHT22;31328;51.402;0.016;2023-05-15T11:53:09;16.30;74.80
24902;DHT22;31328;51.402;0.016;2023-05-15T11:55:38;16.20;75.60
24902;DHT22;31328;51.402;0.016;2023-05-15T11:58:13;16.10;76.20
24902;DHT22;31328;51.402;0.016;2023-05-15T12:00:41;16.20;75.50
24902;DHT22;31328;51.402;0.016;2023-05-15T12:03:25;16.20;75.40
24902;DHT22;31328;51.402;0.016;2023-05-15T12:05:52;16.20;75.30
24902;DHT22;31328;51.402;0.016;2023-05-15T12:08:20;16.30;75.10
24902;DHT22;31328;51.402;0.016;2023-05-15T12:10:46;16.40;75.00
24902;DHT22;31328;51.402;0.016;2023-05-15T12:13:14;16.50;74.60
24902;DHT22;31328;51.402;0.016;2023-05-15T12:15:45;16.60;74.40
24902;DHT22;31328;51.402;0.016;2023-05-15T12:18:12;16.70;74.70
24902;DHT22;31328;51.402;0.016;2023-05-15T12:20:40;16.80;74.80
24902;DHT22;31328;51.402;0.016;2023-05-15T12:23:16;16.90;74.60
24902;DHT22;31328;51.402;0.016;2023-05-15T12:25:44;16.80;74.90
24902;DHT22;31328;51.402;0.016;2023-05-15T12:28:11;16.80;74.90
24902;DHT22;31328;51.402;0.016;2023-05-15T12:30:38;16.70;74.80
24902;DHT22;31328;51.402;0.016;2023-05-15T12:33:06;16.60;74.50
24902;DHT22;31328;51.402;0.016;2023-05-15T12:35:39;16.50;75.20
24902;DHT22;31328;51.402;0.016;2023-05-15T12:38:06;16.40;75.50
24902;DHT22;31328;51.402;0.016;2023-05-15T12:40:34;16.30;75.50
24902;DHT22;31328;51.402;0.016;2023-05-15T12:43:05;16.10;75.20
24902;DHT22;31328;51.402;0.016;2023-05-15T12:45:31;16.10;76.30
24902;DHT22;31328;51.402;0.016;2023-05-15T12:48:00;16.20;76.60
24902;DHT22;31328;51.402;0.016;2023-05-15T12:50:27;16.40;76.80
24902;DHT22;31328;51.402;0.016;2023-05-15T12:52:57;16.60;76.70
24902;DHT22;31328;51.402;0.016;2023-05-15T12:55:26;16.70;76.70
24902;DHT22;31328;51.402;0.016;2023-05-15T12:57:55;16.70;76.30
24902;DHT22;31328;51.402;0.016;2023-05-15T13:00:23;16.60;76.90
24902;DHT22;31328;51.402;0.016;2023-05-15T13:02:53;16.60;77.20
24902;DHT22;31328;51.402;0.016;2023-05-15T13:05:30;16.50;77.10
24902;DHT22;31328;51.402;0.016;2023-05-15T13:07:58;16.50;76.80
24902;DHT22;31328;51.402;0.016;2023-05-15T13:10:25;16.40;77.10
24902;DHT22;31328;51.402;0.016;2023-05-15T13:12:52;16.40;76.90
24902;DHT22;31328;51.402;0.016;2023-05-15T13:20:27;16.70;76.40
24902;DHT22;31328;51.402;0.016;2023-05-15T13:22:54;16.80;75.70
24902;DHT22;31328;51.402;0.016;2023-05-15T13:25:20;16.90;75.10
24902;DHT22;31328;51.402;0.016;2023-05-15T13:27:47;17.10;75.40
24902;DHT22;31328;51.402;0.016;2023-05-15T13:30:14;17.20;75.30
24902;DHT22;31328;51.402;0.016;2023-05-15T13:32:41;17.40;74.20
24902;DHT22;31328;51.402;0.016;2023-05-15T13:35:08;17.50;72.70
24902;DHT22;31328;51.402;0.016;2023-05-15T13:37:36;17.50;72.00
24902;DHT22;31328;51.402;0.016;2023-05-15T13:40:03;17.60;71.80
24902;DHT22;31328;51.402;0.016;2023-05-15T13:42:41;17.60;71.90
24902;DHT22;31328;51.402;0.016;2023-05-15T13:45:12;17.70;71.70
24902;DHT22;31328;51.402;0.016;2023-05-15T13:47:38;17.80;71.40
24902;DHT22;31328;51.402;0.016;2023-05-15T13:50:10;17.90;71.30
24902;DHT22;31328;51.402;0.016;2023-05-15T13:52:37;18.00;70.80
24902;DHT22;31328;51.402;0.016;2023-05-15T13:55:04;18.00;71.10
24902;DHT22;31328;51.402;0.016;2023-05-15T13:57:31;17.90;70.90
24902;DHT22;31328;51.402;0.016;2023-05-15T13:59:57;17.80;71.20
24902;DHT22;31328;51.402;0.016;2023-05-15T14:02:24;17.70;71.60
24902;DHT22;31328;51.402;0.016;2023-05-15T14:04:52;17.60;72.50
24902;DHT22;31328;51.402;0.016;2023-05-15T14:07:21;17.50;73.10
24902;DHT22;31328;51.402;0.016;2023-05-15T14:09:48;17.40;72.80
24902;DHT22;31328;51.402;0.016;2023-05-15T14:12:15;17.30;72.40
24902;DHT22;31328;51.402;0.016;2023-05-15T14:14:41;17.20;71.80
24902;DHT22;31328;51.402;0.016;2023-05-15T14:17:07;17.10;71.70
24902;DHT22;31328;51.402;0.016;2023-05-15T14:19:34;16.90;71.60
24902;DHT22;31328;51.402;0.016;2023-05-15T14:22:00;16.80;72.20
24902;DHT22;31328;51.402;0.016;2023-05-15T14:24:27;16.70;72.50
24902;DHT22;31328;51.402;0.016;2023-05-15T14:26:53;16.70;72.30
24902;DHT22;31328;51.402;0.016;2023-05-15T14:29:19;16.70;72.80
24902;DHT22;31328;51.402;0.016;2023-05-15T14:31:46;16.60;72.90
24902;DHT22;31328;51.402;0.016;2023-05-15T14:34:13;16.60;73.10
24902;DHT22;31328;51.402;0.016;2023-05-15T14:36:39;16.60;73.10
24902;DHT22;31328;51.402;0.016;2023-05-15T14:39:06;16.50;72.80
24902;DHT22;31328;51.402;0.016;2023-05-15T14:41:32;16.50;72.60
24902;DHT22;31328;51.402;0.016;2023-05-15T14:43:58;16.50;71.50
24902;DHT22;31328;51.402;0.016;2023-05-15T14:46:25;16.60;71.30
24902;DHT22;31328;51.402;0.016;2023-05-15T14:48:51;16.60;70.90
24902;DHT22;31328;51.402;0.016;2023-05-15T14:51:18;16.70;71.40
24902;DHT22;31328;51.402;0.016;2023-05-15T14:53:44;16.70;71.70
24902;DHT22;31328;51.402;0.016;2023-05-15T14:56:11;16.70;71.90
24902;DHT22;31328;51.402;0.016;2023-05-15T14:58:37;16.70;72.20
24902;DHT22;31328;51.402;0.016;2023-05-15T15:01:04;16.80;72.30
24902;DHT22;31328;51.402;0.016;2023-05-15T15:03:30;16.80;72.40
24902;DHT22;31328;51.402;0.016;2023-05-15T15:05:57;16.80;72.40
24902;DHT22;31328;51.402;0.016;2023-05-15T15:08:24;16.80;72.60
24902;DHT22;31328;51.402;0.016;2023-05-15T15:10:51;16.80;73.00
24902;DHT22;31328;51.402;0.016;2023-05-15T15:13:17;16.80;73.10
24902;DHT22;31328;51.402;0.016;2023-05-15T15:15:44;16.80;73.10
24902;DHT22;31328;51.402;0.016;2023-05-15T15:18:11;16.90;72.70
24902;DHT22;31328;51.402;0.016;2023-05-15T15:20:37;17.00;72.70
24902;DHT22;31328;51.402;0.016;2023-05-15T15:23:04;17.10;72.70
24902;DHT22;31328;51.402;0.016;2023-05-15T15:25:31;17.10;71.50
24902;DHT22;31328;51.402;0.016;2023-05-15T15:27:57;17.00;71.80
24902;DHT22;31328;51.402;0.016;2023-05-15T15:30:24;16.90;72.00
24902;DHT22;31328;51.402;0.016;2023-05-15T15:32:51;16.80;72.50
24902;DHT22;31328;51.402;0.016;2023-05-15T15:35:19;16.60;72.60
24902;DHT22;31328;51.402;0.016;2023-05-15T15:37:46;16.60;73.00
24902;DHT22;31328;51.402;0.016;2023-05-15T15:40:12;16.50;73.10
24902;DHT22;31328;51.402;0.016;2023-05-15T15:42:39;16.50;73.30
24902;DHT22;31328;51.402;0.016;2023-05-15T15:45:05;16.50;73.60
24902;DHT22;31328;51.402;0.016;2023-05-15T15:47:32;16.40;73.20
24902;DHT22;31328;51.402;0.016;2023-05-15T15:49:58;16.40;73.40
24902;DHT22;31328;51.402;0.016;2023-05-15T15:52:25;16.30;73.40
24902;DHT22;31328;51.402;0.016;2023-05-15T15:54:52;16.20;73.60
24902;DHT22;31328;51.402;0.016;2023-05-15T15:57:19;16.00;73.90
24902;DHT22;31328;51.402;0.016;2023-05-15T15:59:46;15.90;73.60
24902;DHT22;31328;51.402;0.016;2023-05-15T16:02:14;15.80;74.00
24902;DHT22;31328;51.402;0.016;2023-05-15T16:04:41;15.70;74.30
24902;DHT22;31328;51.402;0.016;2023-05-15T16:07:07;15.70;74.50